createdAt,value
2018-10-07T00:00:50.471Z,977.789
2018-10-07T00:02:49.846Z,977.782
2018-10-07T00:04:50.461Z,977.757
2018-10-07T00:06:49.812Z,977.759
2018-10-07T00:08:49.998Z,977.766
2018-10-07T00:10:50.253Z,977.758
2018-10-07T00:12:50.496Z,977.768
2018-10-07T00:14:49.634Z,977.781
2018-10-07T00:16:49.885Z,977.813
2018-10-07T00:18:50.022Z,977.809
2018-10-07T00:20:50.244Z,977.822
2018-10-07T00:22:50.452Z,977.804
2018-10-07T00:24:49.738Z,977.755
2018-10-07T00:26:50.016Z,977.734
2018-10-07T00:28:50.212Z,977.729
2018-10-07T00:30:50.354Z,977.710
2018-10-07T00:32:50.509Z,977.649
2018-10-07T00:34:50.031Z,977.629
2018-10-07T00:36:50.350Z,977.588
2018-10-07T00:38:49.624Z,977.588
2018-10-07T00:40:49.771Z,977.606
2018-10-07T00:42:49.979Z,977.611
2018-10-07T00:44:50.218Z,977.618
2018-10-07T00:46:50.455Z,977.671
2018-10-07T00:48:49.622Z,977.690
2018-10-07T00:50:49.908Z,977.692
2018-10-07T00:52:50.118Z,977.689
2018-10-07T00:54:50.333Z,977.622
2018-10-07T00:56:49.648Z,977.609
2018-10-07T00:58:49.920Z,977.606
2018-10-07T01:00:50.102Z,977.611
2018-10-07T01:02:50.313Z,977.625
2018-10-07T01:04:49.836Z,977.631
2018-10-07T01:06:50.057Z,977.621
2018-10-07T01:08:50.231Z,977.620
2018-10-07T01:10:50.497Z,977.629
2018-10-07T01:12:49.655Z,977.646
2018-10-07T01:14:49.889Z,977.668
2018-10-07T01:16:50.126Z,977.722
2018-10-07T01:18:50.353Z,977.750
2018-10-07T01:20:49.751Z,977.787
2018-10-07T01:22:49.905Z,977.779
2018-10-07T01:24:50.101Z,977.784
2018-10-07T01:26:50.373Z,977.773
2018-10-07T01:28:49.652Z,977.760
2018-10-07T01:30:49.844Z,977.767
2018-10-07T01:32:50.015Z,977.792
2018-10-07T01:34:50.577Z,977.798
2018-10-07T01:36:49.924Z,977.805
2018-10-07T01:38:50.139Z,977.801
2018-10-07T01:40:50.390Z,977.819
2018-10-07T01:42:50.559Z,977.829
2018-10-07T01:44:49.717Z,977.839
2018-10-07T01:46:49.959Z,977.842
2018-10-07T01:48:50.159Z,977.842
2018-10-07T01:50:50.343Z,977.853
2018-10-07T01:52:50.489Z,977.856
2018-10-07T01:54:49.644Z,977.847
2018-10-07T01:56:50.042Z,977.841
2018-10-07T01:58:50.151Z,977.845
2018-10-07T02:00:50.340Z,977.843
2018-10-07T02:02:50.542Z,977.855
2018-10-07T02:04:50.086Z,977.852
2018-10-07T02:06:50.299Z,977.852
2018-10-07T02:08:50.326Z,977.841
2018-10-07T02:10:50.456Z,977.841
2018-10-07T02:12:49.626Z,977.837
2018-10-07T02:14:49.926Z,977.835
2018-10-07T02:16:50.257Z,977.830
2018-10-07T02:18:50.469Z,977.868
2018-10-07T02:20:50.600Z,977.865
2018-10-07T02:22:49.801Z,977.873
2018-10-07T02:24:50.003Z,977.857
2018-10-07T02:26:50.312Z,977.850
2018-10-07T02:28:50.427Z,977.858
2018-10-07T02:30:49.640Z,977.874
2018-10-07T02:32:49.832Z,977.908
2018-10-07T02:34:50.406Z,977.933
2018-10-07T02:36:49.755Z,977.960
2018-10-07T02:38:49.976Z,978.003
2018-10-07T02:40:50.135Z,978.047
2018-10-07T02:42:50.337Z,978.050
2018-10-07T02:44:50.592Z,978.064
2018-10-07T02:46:50.023Z,978.059
2018-10-07T02:48:50.202Z,978.049
2018-10-07T02:50:50.514Z,978.058
2018-10-07T02:52:49.719Z,978.097
2018-10-07T02:54:49.785Z,978.109
2018-10-07T02:56:50.102Z,978.141
2018-10-07T02:58:50.278Z,978.146
2018-10-07T03:00:50.485Z,978.134
2018-10-07T03:02:49.724Z,978.164
2018-10-07T03:04:50.757Z,978.172
2018-10-07T03:06:49.741Z,978.161
2018-10-07T03:08:49.958Z,978.165
2018-10-07T03:10:50.192Z,978.168
2018-10-07T03:12:50.449Z,978.149
2018-10-07T03:14:49.643Z,978.149
2018-10-07T03:16:50.027Z,978.164
2018-10-07T03:18:50.136Z,978.180
2018-10-07T03:20:50.354Z,978.190
2018-10-07T03:22:49.618Z,978.220
2018-10-07T03:24:49.798Z,978.258
2018-10-07T03:26:50.122Z,978.262
2018-10-07T03:28:50.293Z,978.308
2018-10-07T03:30:50.509Z,978.319
2018-10-07T03:32:49.704Z,978.340
2018-10-07T03:34:50.163Z,978.351
2018-10-07T03:36:50.406Z,978.357
2018-10-07T03:38:49.629Z,978.356
2018-10-07T03:40:49.900Z,978.372
2018-10-07T03:42:50.268Z,978.401
2018-10-07T03:44:50.440Z,978.443
2018-10-07T03:46:49.650Z,978.458
2018-10-07T03:48:49.882Z,978.477
2018-10-07T03:50:50.111Z,978.475
2018-10-07T03:52:50.344Z,978.470
2018-10-07T03:54:49.713Z,978.482
2018-10-07T03:56:50.040Z,978.490
2018-10-07T03:58:50.238Z,978.531
2018-10-07T04:00:50.451Z,978.561
2018-10-07T04:02:49.797Z,978.613
2018-10-07T04:04:50.387Z,978.661
2018-10-07T04:06:49.668Z,978.710
2018-10-07T04:08:49.885Z,978.749
2018-10-07T04:10:50.035Z,978.739
2018-10-07T04:12:50.269Z,978.736
2018-10-07T04:14:50.407Z,978.730
2018-10-07T04:16:49.789Z,978.709
2018-10-07T04:18:49.965Z,978.713
2018-10-07T04:20:50.168Z,978.704
2018-10-07T04:22:50.296Z,978.722
2018-10-07T04:24:50.481Z,978.770
2018-10-07T04:26:49.749Z,978.771
2018-10-07T04:28:49.932Z,978.799
2018-10-07T04:30:50.196Z,978.809
2018-10-07T04:32:50.389Z,978.845
2018-10-07T04:34:49.966Z,978.878
2018-10-07T04:36:50.207Z,978.927
2018-10-07T04:38:50.383Z,978.927
2018-10-07T04:40:49.636Z,978.954
2018-10-07T04:42:49.799Z,978.906
2018-10-07T04:44:50.037Z,978.889
2018-10-07T04:46:50.344Z,978.878
2018-10-07T04:48:49.631Z,978.884
2018-10-07T04:50:49.839Z,978.903
2018-10-07T04:52:50.024Z,978.910
2018-10-07T04:54:50.209Z,978.934
2018-10-07T04:56:50.609Z,978.930
2018-10-07T04:58:49.847Z,978.930
2018-10-07T05:00:49.981Z,978.951
2018-10-07T05:02:50.244Z,978.946
2018-10-07T05:04:49.878Z,978.971
2018-10-07T05:06:50.159Z,978.981
2018-10-07T05:08:50.309Z,978.996
2018-10-07T05:10:50.446Z,978.996
2018-10-07T05:12:49.656Z,979.010
2018-10-07T05:14:49.899Z,979.018
2018-10-07T05:16:50.215Z,979.025
2018-10-07T05:18:50.466Z,979.036
2018-10-07T05:20:49.922Z,979.036
2018-10-07T05:22:50.367Z,979.082
2018-10-07T05:24:50.663Z,979.076
2018-10-07T05:26:49.863Z,979.076
2018-10-07T05:28:50.058Z,979.122
2018-10-07T05:30:50.238Z,979.139
2018-10-07T05:32:50.503Z,979.193
2018-10-07T05:34:50.270Z,979.230
2018-10-07T05:36:50.068Z,979.274
2018-10-07T05:38:50.258Z,979.274
2018-10-07T05:40:50.485Z,979.314
2018-10-07T05:42:49.748Z,979.372
2018-10-07T05:44:50.329Z,979.395
2018-10-07T05:46:50.297Z,979.395
2018-10-07T05:48:50.487Z,979.425
2018-10-07T05:50:49.693Z,979.416
2018-10-07T05:52:49.965Z,979.435
2018-10-07T05:54:50.230Z,979.446
2018-10-07T05:56:50.402Z,979.481
2018-10-07T05:58:49.627Z,979.497
2018-10-07T06:00:49.906Z,979.531
2018-10-07T06:02:50.213Z,979.541
2018-10-07T06:04:49.737Z,979.525
2018-10-07T06:06:50.095Z,979.508
2018-10-07T06:08:50.278Z,979.513
2018-10-07T06:10:50.473Z,979.536
2018-10-07T06:12:49.647Z,979.560
2018-10-07T06:14:50.151Z,979.583
2018-10-07T06:16:50.001Z,979.600
2018-10-07T06:18:50.223Z,979.600
2018-10-07T06:20:50.457Z,979.606
2018-10-07T06:22:49.648Z,979.621
2018-10-07T06:24:49.877Z,979.627
2018-10-07T06:26:50.156Z,979.682
2018-10-07T06:28:50.344Z,979.706
2018-10-07T06:30:50.528Z,979.752
2018-10-07T06:32:49.942Z,979.787
2018-10-07T06:34:50.420Z,979.862
2018-10-07T06:36:49.773Z,979.916
2018-10-07T06:38:50.411Z,979.958
2018-10-07T06:40:50.222Z,979.963
2018-10-07T06:42:50.429Z,979.967
2018-10-07T06:44:49.657Z,979.975
2018-10-07T06:46:49.945Z,979.985
2018-10-07T06:48:50.163Z,980.042
2018-10-07T06:50:50.412Z,980.085
2018-10-07T06:52:49.619Z,980.120
2018-10-07T06:54:49.898Z,980.203
2018-10-07T06:56:50.204Z,980.203
2018-10-07T06:58:50.346Z,980.248
2018-10-07T07:00:49.648Z,980.229
2018-10-07T07:02:49.877Z,980.225
2018-10-07T07:04:50.494Z,980.241
2018-10-07T07:06:49.796Z,980.253
2018-10-07T07:08:50.038Z,980.248
2018-10-07T07:10:50.283Z,980.241
2018-10-07T07:12:50.652Z,980.248
2018-10-07T07:14:49.987Z,980.266
2018-10-07T07:16:50.301Z,980.312
2018-10-07T07:18:50.518Z,980.312
2018-10-07T07:20:49.778Z,980.312
2018-10-07T07:22:49.991Z,980.356
2018-10-07T07:24:50.206Z,980.388
2018-10-07T07:26:49.631Z,980.405
2018-10-07T07:28:49.868Z,980.438
2018-10-07T07:30:50.068Z,980.499
2018-10-07T07:32:50.284Z,980.500
2018-10-07T07:34:49.993Z,980.527
2018-10-07T07:36:50.448Z,980.527
2018-10-07T07:38:50.281Z,980.608
2018-10-07T07:40:50.472Z,980.608
2018-10-07T07:42:49.659Z,980.679
2018-10-07T07:44:49.934Z,980.734
2018-10-07T07:46:50.116Z,980.743
2018-10-07T07:48:50.420Z,980.787
2018-10-07T07:50:50.524Z,980.793
2018-10-07T07:52:49.744Z,980.798
2018-10-07T07:54:49.898Z,980.828
2018-10-07T07:56:50.220Z,980.867
2018-10-07T07:58:50.563Z,980.898
2018-10-07T08:00:49.719Z,980.928
2018-10-07T08:02:49.884Z,980.964
2018-10-07T08:04:50.457Z,980.964
2018-10-07T08:06:49.726Z,981.039
2018-10-07T08:08:50.186Z,981.046
2018-10-07T08:10:50.013Z,981.067
2018-10-07T08:12:50.174Z,981.086
2018-10-07T08:14:50.372Z,981.083
2018-10-07T08:16:49.656Z,981.095
2018-10-07T08:18:49.872Z,981.095
2018-10-07T08:20:50.072Z,981.091
2018-10-07T08:22:50.194Z,981.086
2018-10-07T08:24:50.323Z,981.105
2018-10-07T08:26:49.642Z,981.118
2018-10-07T08:28:49.821Z,981.121
2018-10-07T08:30:50.030Z,981.147
2018-10-07T08:32:50.210Z,981.147
2018-10-07T08:34:49.684Z,981.195
2018-10-07T08:36:49.850Z,981.209
2018-10-07T08:38:50.080Z,981.245
2018-10-07T08:40:50.551Z,981.330
2018-10-07T08:42:49.695Z,981.395
2018-10-07T08:44:49.867Z,981.475
2018-10-07T08:46:50.277Z,981.521
2018-10-07T08:48:50.400Z,981.533
2018-10-07T08:50:50.580Z,981.547
2018-10-07T08:52:49.848Z,981.547
2018-10-07T08:54:50.047Z,981.579
2018-10-07T08:56:50.328Z,981.612
2018-10-07T08:58:49.622Z,981.627
2018-10-07T09:00:49.863Z,981.623
2018-10-07T09:02:49.974Z,981.618
2018-10-07T09:04:50.433Z,981.619
2018-10-07T09:06:49.802Z,981.612
2018-10-07T09:08:50.312Z,981.632
2018-10-07T09:10:49.987Z,981.633
2018-10-07T09:12:50.175Z,981.688
2018-10-07T09:14:50.339Z,981.735
2018-10-07T09:16:49.669Z,981.735
2018-10-07T09:18:49.874Z,981.735
2018-10-07T09:20:50.229Z,981.788
2018-10-07T09:22:50.414Z,981.791
2018-10-07T09:24:50.460Z,981.768
2018-10-07T09:26:50.143Z,981.798
2018-10-07T09:28:49.860Z,981.832
2018-10-07T09:30:49.989Z,981.843
2018-10-07T09:32:50.349Z,981.855
2018-10-07T09:34:50.219Z,981.833
2018-10-07T09:36:50.714Z,981.827
2018-10-07T09:38:50.470Z,981.821
2018-10-07T09:40:49.723Z,981.804
2018-10-07T09:42:49.902Z,981.819
2018-10-07T09:44:50.147Z,981.831
2018-10-07T09:46:50.326Z,981.813
2018-10-07T09:48:50.534Z,981.813
2018-10-07T09:50:49.746Z,981.786
2018-10-07T09:52:49.967Z,981.776
2018-10-07T09:54:50.159Z,981.783
2018-10-07T09:56:50.468Z,981.781
2018-10-07T09:58:49.672Z,981.777
2018-10-07T10:00:49.942Z,981.764
2018-10-07T10:02:50.129Z,981.726
2018-10-07T10:04:49.672Z,981.697
2018-10-07T10:06:50.036Z,981.627
2018-10-07T10:08:50.265Z,981.606
2018-10-07T10:10:50.526Z,981.556
2018-10-07T10:12:49.627Z,981.491
2018-10-07T10:14:49.829Z,981.479
2018-10-07T10:16:50.050Z,981.460
2018-10-07T10:18:50.251Z,981.497
2018-10-07T10:20:50.469Z,981.495
2018-10-07T10:22:49.725Z,981.496
2018-10-07T10:24:50.592Z,981.485
2018-10-07T10:26:49.866Z,981.485
2018-10-07T10:28:50.033Z,981.458
2018-10-07T10:30:50.234Z,981.453
2018-10-07T10:32:50.455Z,981.394
2018-10-07T10:34:50.295Z,981.394
2018-10-07T10:36:50.892Z,981.366
2018-10-07T10:38:50.381Z,981.388
2018-10-07T10:40:50.572Z,981.421
2018-10-07T10:42:49.762Z,981.456
2018-10-07T10:44:49.977Z,981.456
2018-10-07T10:46:50.264Z,981.511
2018-10-07T10:48:49.788Z,981.518
2018-10-07T10:50:49.978Z,981.516
2018-10-07T10:52:50.214Z,981.512
2018-10-07T10:54:50.333Z,981.512
2018-10-07T10:56:49.672Z,981.484
2018-10-07T10:58:49.850Z,981.456
2018-10-07T11:00:50.168Z,981.417
2018-10-07T11:02:49.705Z,981.372
2018-10-07T11:04:50.176Z,981.334
2018-10-07T11:06:50.426Z,981.321
2018-10-07T11:08:49.633Z,981.319
2018-10-07T11:10:49.795Z,981.342
2018-10-07T11:12:49.979Z,981.342
2018-10-07T11:14:50.212Z,981.327
2018-10-07T11:16:50.418Z,981.307
2018-10-07T11:18:49.919Z,981.301
2018-10-07T11:20:50.042Z,981.308
2018-10-07T11:22:50.203Z,981.311
2018-10-07T11:24:50.579Z,981.301
2018-10-07T11:26:49.881Z,981.301
2018-10-07T11:28:50.072Z,981.266
2018-10-07T11:30:50.220Z,981.266
2018-10-07T11:32:50.399Z,981.278
2018-10-07T11:34:50.119Z,981.273
2018-10-07T11:36:50.207Z,981.314
2018-10-07T11:38:50.391Z,981.314
2018-10-07T11:40:50.180Z,981.332
2018-10-07T11:42:49.674Z,981.345
2018-10-07T11:44:49.844Z,981.360
2018-10-07T11:46:50.178Z,981.361
2018-10-07T11:48:50.224Z,981.367
2018-10-07T11:50:50.516Z,981.372
2018-10-07T11:52:50.553Z,981.343
2018-10-07T11:54:49.811Z,981.319
2018-10-07T11:56:50.191Z,981.314
2018-10-07T11:58:50.436Z,981.272
2018-10-07T12:00:50.600Z,981.256
2018-10-07T12:02:50.339Z,981.264
2018-10-07T12:04:50.456Z,981.267
2018-10-07T12:06:49.857Z,981.285
2018-10-07T12:08:50.126Z,981.286
2018-10-07T12:10:50.308Z,981.298
2018-10-07T12:12:50.521Z,981.313
2018-10-07T12:14:49.715Z,981.323
2018-10-07T12:16:49.978Z,981.329
2018-10-07T12:18:50.132Z,981.336
2018-10-07T12:20:50.326Z,981.332
2018-10-07T12:22:50.492Z,981.332
2018-10-07T12:24:49.689Z,981.357
2018-10-07T12:26:49.960Z,981.346
2018-10-07T12:28:50.231Z,981.358
2018-10-07T12:30:49.644Z,981.374
2018-10-07T12:32:49.834Z,981.385
2018-10-07T12:34:50.379Z,981.386
2018-10-07T12:36:50.891Z,981.360
2018-10-07T12:38:49.758Z,981.360
2018-10-07T12:40:50.018Z,981.360
2018-10-07T12:42:50.559Z,981.366
2018-10-07T12:44:50.225Z,981.346
2018-10-07T12:46:50.457Z,981.381
2018-10-07T12:48:49.704Z,981.399
2018-10-07T12:50:49.870Z,981.470
2018-10-07T12:52:49.982Z,981.499
2018-10-07T12:54:50.128Z,981.554
2018-10-07T12:56:50.494Z,981.560
2018-10-07T12:58:49.677Z,981.573
2018-10-07T13:00:49.860Z,981.564
2018-10-07T13:02:50.057Z,981.574
2018-10-07T13:04:50.436Z,981.593
2018-10-07T13:06:49.784Z,981.569
2018-10-07T13:08:49.949Z,981.560
2018-10-07T13:10:50.103Z,981.515
2018-10-07T13:12:50.208Z,981.515
2018-10-07T13:14:50.445Z,981.540
2018-10-07T13:16:49.767Z,981.532
2018-10-07T13:18:49.861Z,981.535
2018-10-07T13:20:50.025Z,981.552
2018-10-07T13:22:50.238Z,981.582
2018-10-07T13:24:50.503Z,981.608
2018-10-07T13:26:49.745Z,981.616
2018-10-07T13:28:49.991Z,981.622
2018-10-07T13:30:50.164Z,981.647
2018-10-07T13:32:50.288Z,981.674
2018-10-07T13:34:49.790Z,981.723
2018-10-07T13:36:50.067Z,981.758
2018-10-07T13:38:50.208Z,981.784
2018-10-07T13:40:50.346Z,981.789
2018-10-07T13:42:50.533Z,981.800
2018-10-07T13:44:49.828Z,981.822
2018-10-07T13:46:50.075Z,981.830
2018-10-07T13:48:50.310Z,981.877
2018-10-07T13:50:50.549Z,981.886
2018-10-07T13:52:49.787Z,981.879
2018-10-07T13:54:49.900Z,981.868
2018-10-07T13:56:50.110Z,981.841
2018-10-07T13:58:50.336Z,981.827
2018-10-07T14:00:50.552Z,981.854
2018-10-07T14:02:49.735Z,981.859
2018-10-07T14:04:50.290Z,981.820
2018-10-07T14:06:49.635Z,981.801
2018-10-07T14:08:49.813Z,981.788
2018-10-07T14:10:49.992Z,981.776
2018-10-07T14:12:50.177Z,981.735
2018-10-07T14:14:50.363Z,981.724
2018-10-07T14:16:49.776Z,981.726
2018-10-07T14:18:49.936Z,981.732
2018-10-07T14:20:50.128Z,981.732
2018-10-07T14:22:50.324Z,981.735
2018-10-07T14:24:50.411Z,981.745
2018-10-07T14:26:49.802Z,981.755
2018-10-07T14:28:49.839Z,981.756
2018-10-07T14:30:50.058Z,981.745
2018-10-07T14:32:50.212Z,981.735
2018-10-07T14:34:49.693Z,981.768
2018-10-07T14:36:50.185Z,981.789
2018-10-07T14:38:50.325Z,981.837
2018-10-07T14:40:50.564Z,981.893
2018-10-07T14:42:49.724Z,981.906
2018-10-07T14:44:49.928Z,981.923
2018-10-07T14:46:50.220Z,981.928
2018-10-07T14:48:50.399Z,981.952
2018-10-07T14:50:49.624Z,981.973
2018-10-07T14:52:49.781Z,982.018
2018-10-07T14:54:49.985Z,982.018
2018-10-07T14:56:50.282Z,982.020
2018-10-07T14:58:50.445Z,982.061
2018-10-07T15:00:49.658Z,982.095
2018-10-07T15:02:49.779Z,982.124
2018-10-07T15:04:50.159Z,982.175
2018-10-07T15:06:50.416Z,982.202
2018-10-07T15:08:49.684Z,982.226
2018-10-07T15:10:49.872Z,982.241
2018-10-07T15:12:50.061Z,982.238
2018-10-07T15:14:50.234Z,982.264
2018-10-07T15:16:50.454Z,982.287
2018-10-07T15:18:49.614Z,982.349
2018-10-07T15:20:49.821Z,982.409
2018-10-07T15:22:50.017Z,982.446
2018-10-07T15:24:50.165Z,982.446
2018-10-07T15:26:50.483Z,982.522
2018-10-07T15:28:49.674Z,982.554
2018-10-07T15:30:49.783Z,982.554
2018-10-07T15:32:49.948Z,982.568
2018-10-07T15:34:50.388Z,982.572
2018-10-07T15:36:49.732Z,982.586
2018-10-07T15:38:49.909Z,982.591
2018-10-07T15:40:50.128Z,982.607
2018-10-07T15:42:50.371Z,982.670
2018-10-07T15:44:50.591Z,982.712
2018-10-07T15:46:49.991Z,982.738
2018-10-07T15:48:50.091Z,982.738
2018-10-07T15:50:50.228Z,982.790
2018-10-07T15:52:50.358Z,982.805
2018-10-07T15:54:50.598Z,982.886
2018-10-07T15:56:50.342Z,982.930
2018-10-07T15:58:50.038Z,982.944
2018-10-07T16:00:50.209Z,982.985
2018-10-07T16:02:50.325Z,983.028
2018-10-07T16:04:50.010Z,983.093
2018-10-07T16:06:50.225Z,983.134
2018-10-07T16:08:50.592Z,983.163
2018-10-07T16:10:50.030Z,983.209
2018-10-07T16:12:50.237Z,983.260
2018-10-07T16:14:50.442Z,983.332
2018-10-07T16:16:49.729Z,983.373
2018-10-07T16:18:50.025Z,983.447
2018-10-07T16:20:50.100Z,983.471
2018-10-07T16:22:50.253Z,983.528
2018-10-07T16:24:50.365Z,983.572
2018-10-07T16:26:49.763Z,983.572
2018-10-07T16:28:49.901Z,983.665
2018-10-07T16:30:50.082Z,983.698
2018-10-07T16:32:50.316Z,983.738
2018-10-07T16:34:49.709Z,983.772
2018-10-07T16:36:49.921Z,983.772
2018-10-07T16:38:50.049Z,983.872
2018-10-07T16:40:50.168Z,983.923
2018-10-07T16:42:50.437Z,983.974
2018-10-07T16:44:50.610Z,983.996
2018-10-07T16:46:50.024Z,984.045
2018-10-07T16:48:50.181Z,984.077
2018-10-07T16:50:50.432Z,984.131
2018-10-07T16:52:50.115Z,984.188
2018-10-07T16:54:49.914Z,984.224
2018-10-07T16:56:50.182Z,984.258
2018-10-07T16:58:50.295Z,984.267
2018-10-07T17:00:50.497Z,984.296
2018-10-07T17:02:49.626Z,984.335
2018-10-07T17:04:50.398Z,984.388
2018-10-07T17:06:49.643Z,984.474
2018-10-07T17:08:49.828Z,984.500
2018-10-07T17:10:49.990Z,984.549
2018-10-07T17:12:50.355Z,984.571
2018-10-07T17:14:50.071Z,984.597
2018-10-07T17:16:50.317Z,984.658
2018-10-07T17:18:50.493Z,984.725
2018-10-07T17:20:49.913Z,984.772
2018-10-07T17:22:50.395Z,984.798
2018-10-07T17:24:50.552Z,984.832
2018-10-07T17:26:49.911Z,984.851
2018-10-07T17:28:50.135Z,984.879
2018-10-07T17:30:50.296Z,984.882
2018-10-07T17:32:50.785Z,984.910
2018-10-07T17:34:49.756Z,984.963
2018-10-07T17:36:50.102Z,984.996
2018-10-07T17:38:50.324Z,985.000
2018-10-07T17:40:50.532Z,985.023
2018-10-07T17:42:50.099Z,985.045
2018-10-07T17:44:50.521Z,985.058
2018-10-07T17:46:49.864Z,985.107
2018-10-07T17:48:50.610Z,985.107
2018-10-07T17:50:49.805Z,985.181
2018-10-07T17:52:50.031Z,985.221
2018-10-07T17:54:50.380Z,985.237
2018-10-07T17:56:50.172Z,985.268
2018-10-07T17:58:50.317Z,985.305
2018-10-07T18:00:50.430Z,985.345
2018-10-07T18:02:50.068Z,985.345
2018-10-07T18:04:50.059Z,985.414
2018-10-07T18:06:50.362Z,985.462
2018-10-07T18:08:50.489Z,985.499
2018-10-07T18:10:49.654Z,985.541
2018-10-07T18:12:49.894Z,985.620
2018-10-07T18:14:50.116Z,985.648
2018-10-07T18:16:49.793Z,985.688
2018-10-07T18:18:49.973Z,985.710
2018-10-07T18:20:50.173Z,985.758
2018-10-07T18:22:50.366Z,985.769
2018-10-07T18:24:49.665Z,985.806
2018-10-07T18:26:49.914Z,985.828
2018-10-07T18:28:50.173Z,985.837
2018-10-07T18:30:49.682Z,985.866
2018-10-07T18:32:50.315Z,985.897
2018-10-07T18:34:50.243Z,985.920
2018-10-07T18:36:49.815Z,985.969
2018-10-07T18:38:50.175Z,986.000
2018-10-07T18:40:50.594Z,986.035
2018-10-07T18:42:50.162Z,986.064
2018-10-07T18:44:49.644Z,986.077
2018-10-07T18:46:50.279Z,986.098
2018-10-07T18:48:50.450Z,986.129
2018-10-07T18:50:50.062Z,986.150
2018-10-07T18:52:50.642Z,986.199
2018-10-07T18:54:50.220Z,986.190
2018-10-07T18:56:49.895Z,986.186
2018-10-07T18:58:50.384Z,986.219
2018-10-07T19:00:50.010Z,986.221
2018-10-07T19:02:51.192Z,986.242
2018-10-07T19:04:49.983Z,986.284
2018-10-07T19:06:50.579Z,986.373
2018-10-07T19:08:50.047Z,986.430
2018-10-07T19:10:50.759Z,986.439
2018-10-07T19:12:50.240Z,986.490
2018-10-07T19:14:49.934Z,986.511
2018-10-07T19:16:50.544Z,986.562
2018-10-07T19:18:50.073Z,986.596
2018-10-07T19:20:50.660Z,986.614
2018-10-07T19:22:49.978Z,986.636
2018-10-07T19:24:50.525Z,986.655
2018-10-07T19:26:50.109Z,986.667
2018-10-07T19:28:49.758Z,986.692
2018-10-07T19:30:50.314Z,986.724
2018-10-07T19:32:49.869Z,986.747
2018-10-07T19:34:49.814Z,986.807
2018-10-07T19:36:50.708Z,986.818
2018-10-07T19:38:50.165Z,986.859
2018-10-07T19:40:49.764Z,986.868
2018-10-07T19:42:50.699Z,986.878
2018-10-07T19:44:50.762Z,986.885
2018-10-07T19:46:50.069Z,986.923
2018-10-07T19:48:50.637Z,986.944
2018-10-07T19:50:50.209Z,986.955
2018-10-07T19:52:50.048Z,986.941
2018-10-07T19:54:49.944Z,986.932
2018-10-07T19:56:49.967Z,986.912
2018-10-07T19:58:50.415Z,986.878
2018-10-07T20:00:50.112Z,986.859
2018-10-07T20:02:49.633Z,986.852
2018-10-07T20:04:50.432Z,986.840
2018-10-07T20:06:50.182Z,986.845
2018-10-07T20:08:49.674Z,986.874
2018-10-07T20:10:50.121Z,986.917
2018-10-07T20:12:50.702Z,986.972
2018-10-07T20:14:50.140Z,986.992
2018-10-07T20:16:49.901Z,987.021
2018-10-07T20:18:50.479Z,987.029
2018-10-07T20:20:50.093Z,987.033
2018-10-07T20:22:50.504Z,987.037
2018-10-07T20:24:49.968Z,987.037
2018-10-07T20:26:50.446Z,987.056
2018-10-07T20:28:49.934Z,987.090
2018-10-07T20:30:50.360Z,987.149
2018-10-07T20:32:49.884Z,987.165
2018-10-07T20:34:49.904Z,987.169
2018-10-07T20:36:50.570Z,987.158
2018-10-07T20:38:50.269Z,987.166
2018-10-07T20:40:50.766Z,987.192
2018-10-07T20:42:49.748Z,987.207
2018-10-07T20:44:50.474Z,987.177
2018-10-07T20:46:50.179Z,987.168
2018-10-07T20:48:49.801Z,987.144
2018-10-07T20:50:50.029Z,987.145
2018-10-07T20:52:50.522Z,987.142
2018-10-07T20:54:49.793Z,987.139
2018-10-07T20:56:50.141Z,987.130
2018-10-07T20:58:50.377Z,987.117
2018-10-07T21:00:49.921Z,987.098
2018-10-07T21:02:50.727Z,987.091
2018-10-07T21:04:50.625Z,987.095
2018-10-07T21:06:50.285Z,987.119
2018-10-07T21:08:49.915Z,987.123
2018-10-07T21:10:50.271Z,987.110
2018-10-07T21:12:49.782Z,987.099
2018-10-07T21:14:50.218Z,987.099
2018-10-07T21:16:49.948Z,987.096
2018-10-07T21:18:50.576Z,987.090
2018-10-07T21:20:50.150Z,987.117
2018-10-07T21:22:49.684Z,987.127
2018-10-07T21:24:50.233Z,987.123
2018-10-07T21:26:49.826Z,987.122
2018-10-07T21:28:50.361Z,987.111
2018-10-07T21:30:49.962Z,987.129
2018-10-07T21:32:50.563Z,987.154
2018-10-07T21:34:50.214Z,987.173
2018-10-07T21:36:49.886Z,987.204
2018-10-07T21:38:50.520Z,987.201
2018-10-07T21:40:50.086Z,987.229
2018-10-07T21:42:50.622Z,987.250
2018-10-07T21:44:50.028Z,987.258
2018-10-07T21:46:50.565Z,987.257
2018-10-07T21:48:50.312Z,987.239
2018-10-07T21:50:49.833Z,987.225
2018-10-07T21:52:50.271Z,987.218
2018-10-07T21:54:49.742Z,987.218
2018-10-07T21:56:50.444Z,987.216
2018-10-07T21:58:49.899Z,987.219
2018-10-07T22:00:50.378Z,987.241
2018-10-07T22:02:49.850Z,987.241
2018-10-07T22:04:49.664Z,987.309
2018-10-07T22:06:50.284Z,987.345
2018-10-07T22:08:49.672Z,987.374
2018-10-07T22:10:50.104Z,987.390
2018-10-07T22:12:50.530Z,987.395
2018-10-07T22:14:50.061Z,987.406
2018-10-07T22:16:49.763Z,987.404
2018-10-07T22:18:50.186Z,987.414
2018-10-07T22:20:49.710Z,987.414
2018-10-07T22:22:50.171Z,987.381
2018-10-07T22:24:49.646Z,987.389
2018-10-07T22:26:50.235Z,987.390
2018-10-07T22:28:49.715Z,987.386
2018-10-07T22:30:50.195Z,987.360
2018-10-07T22:32:49.652Z,987.335
2018-10-07T22:34:50.343Z,987.322
2018-10-07T22:36:50.160Z,987.285
2018-10-07T22:38:49.664Z,987.269
2018-10-07T22:40:50.113Z,987.270
2018-10-07T22:42:50.617Z,987.277
2018-10-07T22:44:50.188Z,987.285
2018-10-07T22:46:49.841Z,987.285
2018-10-07T22:48:50.352Z,987.277
2018-10-07T22:50:49.860Z,987.238
2018-10-07T22:52:50.314Z,987.226
2018-10-07T22:54:49.817Z,987.220
2018-10-07T22:56:50.615Z,987.229
2018-10-07T22:58:50.179Z,987.226
2018-10-07T23:00:49.848Z,987.191
2018-10-07T23:02:50.371Z,987.188
2018-10-07T23:04:50.314Z,987.177
2018-10-07T23:06:49.849Z,987.179
2018-10-07T23:08:50.307Z,987.186
2018-10-07T23:10:49.927Z,987.190
2018-10-07T23:12:50.525Z,987.191
2018-10-07T23:14:50.068Z,987.195
2018-10-07T23:16:49.729Z,987.195
2018-10-07T23:18:50.231Z,987.224
2018-10-07T23:20:49.715Z,987.233
2018-10-07T23:22:50.247Z,987.280
2018-10-07T23:24:49.837Z,987.328
2018-10-07T23:26:50.402Z,987.404
2018-10-07T23:28:49.964Z,987.497
2018-10-07T23:30:50.422Z,987.519
2018-10-07T23:32:50.091Z,987.583
2018-10-07T23:34:50.031Z,987.650
2018-10-07T23:36:49.756Z,987.659
2018-10-07T23:38:50.353Z,987.672
2018-10-07T23:40:49.830Z,987.687
2018-10-07T23:42:50.282Z,987.694
2018-10-07T23:44:49.836Z,987.700
2018-10-07T23:46:50.580Z,987.701
2018-10-07T23:48:50.026Z,987.666
2018-10-07T23:50:50.588Z,987.615
2018-10-07T23:52:50.351Z,987.605
2018-10-07T23:54:49.923Z,987.592
2018-10-07T23:56:50.479Z,987.586
2018-10-07T23:58:50.072Z,987.567
